Forester — DIUT — position and weather

sailwx.info

Track history (hours):
 
Tides and Currents Weather Stations Pressure Air Temp Water Temp Dewpoint Dewpoint Depression Visibility Wind Speed Wind Dir Waves Ship Positions

Forester

Last reported at 2014-Jul-31 19:33 UTC. Time now 2014-Jul-31 19:36 UTC.
Position N 36°37' W 008°30'.

Length 100 m; draft 5 m.

Type: Ship. MMSI: 211233870.

Date/timePositionNaut miles runAvg speedWind from/ knotsBaromVisibWave heightAir tempDewpointWater temp
2014-Jul-31 19:33N 36°37' W 008°30'2512.4
2014-Jul-31 17:33N 36°30' W 008°01'1512.6
2014-Jul-31 16:23N 36°26' W 007°43'1412.6
2014-Jul-31 15:19N 36°22' W 007°27'912.4
2014-Jul-31 14:33N 36°19' W 007°16'1211.9
2014-Jul-31 13:32N 36°16' W 007°02'23311.1
2014-Jul-30 16:32N 36°26' W 002°12'1312.8
2014-Jul-30 15:33N 36°28' W 001°57'1312.7
2014-Jul-30 14:32N 36°31' W 001°41'1612.1
2014-Jul-30 13:12N 36°34' W 001°21'2012.5
2014-Jul-30 11:33N 36°37' W 000°56'1212.2
2014-Jul-30 10:33N 36°39' W 000°41'3712.2
2014-Jul-30 07:33N 36°44' E 000°04'1312.4
2014-Jul-30 06:29N 36°45' E 000°21'2612.6
2014-Jul-30 04:24N 36°49' E 000°53'33711.5
2014-Jul-28 23:15N 37°43' E 007°51'810.9
2014-Jul-28 22:32N 37°45' E 008°00'1111.0
2014-Jul-28 21:32N 37°46' E 008°14'1111.3
2014-Jul-28 20:33N 37°47' E 008°28'1110.8
2014-Jul-28 19:33N 37°48' E 008°42'1210.3
2014-Jul-28 18:25N 37°49' E 008°56'910.4
2014-Jul-28 17:33N 37°51' E 009°08'1110.5
2014-Jul-28 16:33N 37°52' E 009°21'1110.8
2014-Jul-28 15:33N 37°54' E 009°34'1110.9
2014-Jul-28 14:33N 37°55' E 009°48'1410.9
2014-Jul-28 13:14N 37°57' E 010°06'1110.7
2014-Jul-28 12:09N 37°59' E 010°20'10210.6
2014-Jul-28 02:33N 38°13' E 012°28'1311.3
2014-Jul-28 01:25N 38°15' E 012°44'910.8
2014-Jul-28 00:33N 38°16' E 012°56'1110.6
2014-Jul-27 23:33N 38°16' E 013°10'1110.8
2014-Jul-27 22:33N 38°16' E 013°23'1111.0
2014-Jul-27 21:33N 38°17' E 013°38'1110.5
2014-Jul-27 20:33N 38°17' E 013°51'1010.4
2014-Jul-27 19:32N 38°17' E 014°04'1110.6
2014-Jul-27 18:31N 38°19' E 014°18'  
Track history (hours):
 
Tides and Currents Weather Stations Pressure Air Temp Water Temp Dewpoint Dewpoint Depression Visibility Wind Speed Wind Dir Waves Ship Positions

Forester

Last reported at 2014-Jul-31 19:33 UTC. Time now 2014-Jul-31 19:36 UTC.
Position N 36°37' W 008°30'.

Length 100 m; draft 5 m.

Type: Ship. MMSI: 211233870.

Date/timePositionNaut miles runAvg speedWind from/ knotsBaromVisibWave heightAir tempDewpointWater temp
2014-Jul-31 19:33N 36°37' W 008°30'2512.4
2014-Jul-31 17:33N 36°30' W 008°01'1512.6
2014-Jul-31 16:23N 36°26' W 007°43'1412.6
2014-Jul-31 15:19N 36°22' W 007°27'912.4
2014-Jul-31 14:33N 36°19' W 007°16'1211.9
2014-Jul-31 13:32N 36°16' W 007°02'23311.1
2014-Jul-30 16:32N 36°26' W 002°12'1312.8
2014-Jul-30 15:33N 36°28' W 001°57'1312.7
2014-Jul-30 14:32N 36°31' W 001°41'1612.1
2014-Jul-30 13:12N 36°34' W 001°21'2012.5
2014-Jul-30 11:33N 36°37' W 000°56'1212.2
2014-Jul-30 10:33N 36°39' W 000°41'3712.2
2014-Jul-30 07:33N 36°44' E 000°04'1312.4
2014-Jul-30 06:29N 36°45' E 000°21'2612.6
2014-Jul-30 04:24N 36°49' E 000°53'33711.5
2014-Jul-28 23:15N 37°43' E 007°51'810.9
2014-Jul-28 22:32N 37°45' E 008°00'1111.0
2014-Jul-28 21:32N 37°46' E 008°14'1111.3
2014-Jul-28 20:33N 37°47' E 008°28'1110.8
2014-Jul-28 19:33N 37°48' E 008°42'1210.3
2014-Jul-28 18:25N 37°49' E 008°56'910.4
2014-Jul-28 17:33N 37°51' E 009°08'1110.5
2014-Jul-28 16:33N 37°52' E 009°21'1110.8
2014-Jul-28 15:33N 37°54' E 009°34'1110.9
2014-Jul-28 14:33N 37°55' E 009°48'1410.9
2014-Jul-28 13:14N 37°57' E 010°06'1110.7
2014-Jul-28 12:09N 37°59' E 010°20'10210.6
2014-Jul-28 02:33N 38°13' E 012°28'1311.3
2014-Jul-28 01:25N 38°15' E 012°44'910.8
2014-Jul-28 00:33N 38°16' E 012°56'1110.6
2014-Jul-27 23:33N 38°16' E 013°10'1110.8
2014-Jul-27 22:33N 38°16' E 013°23'1111.0
2014-Jul-27 21:33N 38°17' E 013°38'1110.5
2014-Jul-27 20:33N 38°17' E 013°51'1010.4
2014-Jul-27 19:32N 38°17' E 014°04'1110.6
2014-Jul-27 18:31N 38°19' E 014°18'  

Dump ship's entire track history